createdAt,value
2022-08-09T00:08:56.970Z,15.51
2022-08-09T00:19:59.042Z,15.42
2022-08-09T00:30:59.269Z,15.22
2022-08-09T00:44:15.598Z,15.32
2022-08-09T00:53:10.104Z,15.42
2022-08-09T01:04:08.863Z,15.51
2022-08-09T01:15:16.981Z,15.42
2022-08-09T01:26:16.781Z,15.42
2022-08-09T01:37:42.808Z,15.42
2022-08-09T01:48:17.417Z,15.12
2022-08-09T01:59:18.116Z,14.73
2022-08-09T02:10:20.298Z,14.54
2022-08-09T02:21:26.361Z,14.44
2022-08-09T02:32:04.197Z,14.54
2022-08-09T02:42:44.317Z,14.44
2022-08-09T02:53:59.618Z,14.34
2022-08-09T03:04:51.834Z,14.05
2022-08-09T03:16:06.321Z,13.75
2022-08-09T03:27:00.807Z,13.56
2022-08-09T03:38:03.404Z,13.46
2022-08-09T03:49:08.011Z,13.56
2022-08-09T04:00:10.359Z,13.46
2022-08-09T04:11:11.778Z,13.36
2022-08-09T04:22:11.936Z,13.46
2022-08-09T04:33:14.563Z,13.66
2022-08-09T04:44:11.172Z,13.85
2022-08-09T04:55:13.081Z,14.83
2022-08-09T05:06:22.031Z,15.22
2022-08-09T05:18:37.603Z,15.61
2022-08-09T05:28:22.528Z,15.81
2022-08-09T05:39:28.513Z,16.49
2022-08-09T05:50:32.123Z,16.88
2022-08-09T06:01:25.744Z,17.37
2022-08-09T06:12:28.062Z,17.57
2022-08-09T06:23:58.918Z,18.55
2022-08-09T06:34:36.686Z,18.94
2022-08-09T06:46:05.463Z,19.33
2022-08-09T06:56:16.809Z,19.82
2022-08-09T07:08:00.051Z,20.11
2022-08-09T07:18:25.357Z,20.40
2022-08-09T07:29:26.821Z,20.80
2022-08-09T07:40:37.416Z,21.09
2022-08-09T07:52:04.545Z,21.38
2022-08-09T08:02:33.717Z,21.58
2022-08-09T08:13:38.243Z,21.97
2022-08-09T08:24:40.722Z,21.97
2022-08-09T08:35:59.764Z,22.26
2022-08-09T08:47:02.780Z,22.65
2022-08-09T08:57:40.577Z,22.65
2022-08-09T09:08:42.412Z,23.24
2022-08-09T09:19:42.034Z,23.24
2022-08-09T09:30:49.802Z,23.53
2022-08-09T09:41:51.048Z,23.83
2022-08-09T09:52:56.114Z,23.73
2022-08-09T10:03:59.105Z,24.32
2022-08-09T10:14:55.814Z,24.61
2022-08-09T10:26:06.185Z,25.19
2022-08-09T10:36:47.309Z,25.78
2022-08-09T10:48:14.379Z,26.56
2022-08-09T10:58:49.608Z,27.25
2022-08-09T11:09:47.995Z,27.64
2022-08-09T11:20:47.585Z,28.52
2022-08-09T11:31:53.141Z,29.11
2022-08-09T11:42:53.181Z,31.55
2022-08-09T11:53:59.409Z,36.54
2022-08-09T12:05:02.536Z,37.71
2022-08-09T12:16:01.393Z,35.85
2022-08-09T12:29:14.480Z,36.93
2022-08-09T12:37:53.853Z,37.03
2022-08-09T12:48:55.513Z,36.64
2022-08-09T13:00:02.097Z,37.13
2022-08-09T13:10:59.110Z,39.57
2022-08-09T13:22:36.327Z,38.89
2022-08-09T13:32:57.114Z,40.35
2022-08-09T13:43:54.233Z,39.47
2022-08-09T13:54:59.228Z,40.06
2022-08-09T14:06:02.618Z,38.40
2022-08-09T14:16:58.665Z,38.69
2022-08-09T14:28:00.060Z,35.56
2022-08-09T14:39:02.485Z,36.05
2022-08-09T14:50:08.663Z,38.40
2022-08-09T15:01:14.642Z,41.33
2022-08-09T15:12:11.681Z,38.30
2022-08-09T15:22:47.039Z,30.96
2022-08-09T15:34:18.087Z,30.48
2022-08-09T15:44:37.833Z,28.81
2022-08-09T15:55:58.872Z,28.91
2022-08-09T16:06:37.687Z,27.93
2022-08-09T16:17:34.748Z,27.25
2022-08-09T16:28:34.046Z,26.86
2022-08-09T16:39:40.031Z,25.98
2022-08-09T16:50:38.459Z,25.39
2022-08-09T17:01:38.835Z,25.00
2022-08-09T17:12:29.411Z,24.80
2022-08-09T17:23:22.603Z,24.51
2022-08-09T17:35:07.334Z,24.12
2022-08-09T17:45:16.082Z,23.83
2022-08-09T17:56:18.540Z,23.44
2022-08-09T18:07:23.346Z,22.75
2022-08-09T18:18:25.350Z,22.16
2022-08-09T18:30:38.121Z,21.68
2022-08-09T18:40:26.807Z,20.99
2022-08-09T18:51:19.411Z,20.70
2022-08-09T19:02:30.412Z,20.31
2022-08-09T19:13:37.979Z,19.91
2022-08-09T19:24:33.310Z,19.82
2022-08-09T19:35:14.036Z,19.62
2022-08-09T19:46:14.350Z,19.23
2022-08-09T19:56:57.750Z,19.13
2022-08-09T20:07:58.647Z,18.94
2022-08-09T20:19:03.598Z,18.64
2022-08-09T20:29:40.515Z,18.45
2022-08-09T20:40:18.973Z,18.06
2022-08-09T20:51:16.880Z,17.76
2022-08-09T21:02:19.225Z,17.57
2022-08-09T21:13:15.559Z,17.37
2022-08-09T21:24:13.025Z,17.08
2022-08-09T21:35:13.722Z,16.98
2022-08-09T21:46:15.540Z,16.69
2022-08-09T21:57:37.562Z,16.49
2022-08-09T22:08:22.978Z,16.30
2022-08-09T22:19:57.903Z,16.10
2022-08-09T22:30:31.396Z,15.91
2022-08-09T22:41:25.579Z,15.81
2022-08-09T22:52:26.527Z,15.51
2022-08-09T23:04:02.239Z,15.51
2022-08-09T23:14:30.320Z,15.32
2022-08-09T23:25:28.260Z,15.32
2022-08-09T23:36:28.545Z,15.42
2022-08-09T23:47:29.342Z,15.22
2022-08-09T23:58:30.088Z,14.93
